sensor_id;sensor_type;location;lat;lon;timestamp;temperature;humidity
64226;DHT22;50545;56.064;26.178;2022-07-23T00:00:26;16.60;99.90
64226;DHT22;50545;56.064;26.178;2022-07-23T00:02:54;16.60;99.90
64226;DHT22;50545;56.064;26.178;2022-07-23T00:05:21;16.60;99.90
64226;DHT22;50545;56.064;26.178;2022-07-23T00:07:49;16.60;99.90
64226;DHT22;50545;56.064;26.178;2022-07-23T00:10:17;16.50;99.90
64226;DHT22;50545;56.064;26.178;2022-07-23T00:12:44;16.60;99.90
64226;DHT22;50545;56.064;26.178;2022-07-23T00:15:18;16.50;99.90
64226;DHT22;50545;56.064;26.178;2022-07-23T00:17:46;16.50;99.90
64226;DHT22;50545;56.064;26.178;2022-07-23T00:20:13;16.50;99.90
64226;DHT22;50545;56.064;26.178;2022-07-23T00:22:54;16.50;99.90
64226;DHT22;50545;56.064;26.178;2022-07-23T00:25:23;16.40;99.90
64226;DHT22;50545;56.064;26.178;2022-07-23T00:27:56;16.40;99.90
64226;DHT22;50545;56.064;26.178;2022-07-23T00:30:24;16.30;99.90
64226;DHT22;50545;56.064;26.178;2022-07-23T00:32:54;16.30;99.90
64226;DHT22;50545;56.064;26.178;2022-07-23T00:35:25;16.30;99.90
64226;DHT22;50545;56.064;26.178;2022-07-23T00:37:53;16.20;99.90
64226;DHT22;50545;56.064;26.178;2022-07-23T00:40:21;16.20;99.90
64226;DHT22;50545;56.064;26.178;2022-07-23T00:42:49;16.20;99.90
64226;DHT22;50545;56.064;26.178;2022-07-23T00:45:16;16.30;99.90
64226;DHT22;50545;56.064;26.178;2022-07-23T00:47:44;16.40;99.90
64226;DHT22;50545;56.064;26.178;2022-07-23T00:50:12;16.30;99.90
64226;DHT22;50545;56.064;26.178;2022-07-23T00:52:39;16.40;99.90
64226;DHT22;50545;56.064;26.178;2022-07-23T00:55:09;16.40;99.90
64226;DHT22;50545;56.064;26.178;2022-07-23T00:57:38;16.40;99.90
64226;DHT22;50545;56.064;26.178;2022-07-23T01:00:08;16.40;99.90
64226;DHT22;50545;56.064;26.178;2022-07-23T01:02:36;16.40;99.90
64226;DHT22;50545;56.064;26.178;2022-07-23T01:05:04;16.50;99.90
64226;DHT22;50545;56.064;26.178;2022-07-23T01:07:33;16.50;99.90
64226;DHT22;50545;56.064;26.178;2022-07-23T01:10:00;16.50;99.90
64226;DHT22;50545;56.064;26.178;2022-07-23T01:12:29;16.50;99.90
64226;DHT22;50545;56.064;26.178;2022-07-23T01:14:58;16.50;99.90
64226;DHT22;50545;56.064;26.178;2022-07-23T01:17:26;16.50;99.90
64226;DHT22;50545;56.064;26.178;2022-07-23T01:19:54;16.50;99.90
64226;DHT22;50545;56.064;26.178;2022-07-23T01:22:21;16.60;99.90
64226;DHT22;50545;56.064;26.178;2022-07-23T01:24:49;16.60;99.90
64226;DHT22;50545;56.064;26.178;2022-07-23T01:27:16;16.70;99.90
64226;DHT22;50545;56.064;26.178;2022-07-23T01:29:44;16.70;99.90
64226;DHT22;50545;56.064;26.178;2022-07-23T01:32:12;16.70;99.90
64226;DHT22;50545;56.064;26.178;2022-07-23T01:34:39;16.70;99.90
64226;DHT22;50545;56.064;26.178;2022-07-23T01:37:07;16.80;99.90
64226;DHT22;50545;56.064;26.178;2022-07-23T01:39:35;16.90;99.90
64226;DHT22;50545;56.064;26.178;2022-07-23T01:42:02;17.00;99.90
64226;DHT22;50545;56.064;26.178;2022-07-23T01:44:30;17.10;99.90
64226;DHT22;50545;56.064;26.178;2022-07-23T01:46:57;17.20;99.90
64226;DHT22;50545;56.064;26.178;2022-07-23T01:49:24;17.20;99.90
64226;DHT22;50545;56.064;26.178;2022-07-23T01:51:52;17.30;99.90
64226;DHT22;50545;56.064;26.178;2022-07-23T01:54:34;17.40;99.90
64226;DHT22;50545;56.064;26.178;2022-07-23T01:57:01;17.40;99.90
64226;DHT22;50545;56.064;26.178;2022-07-23T01:59:29;17.50;99.90
64226;DHT22;50545;56.064;26.178;2022-07-23T02:01:56;17.70;99.90
64226;DHT22;50545;56.064;26.178;2022-07-23T02:04:24;17.70;99.90
64226;DHT22;50545;56.064;26.178;2022-07-23T02:06:52;17.70;99.90
64226;DHT22;50545;56.064;26.178;2022-07-23T02:09:20;17.70;99.90
64226;DHT22;50545;56.064;26.178;2022-07-23T02:11:47;17.70;99.90
64226;DHT22;50545;56.064;26.178;2022-07-23T02:14:15;17.80;99.90
64226;DHT22;50545;56.064;26.178;2022-07-23T02:16:42;17.80;99.90
64226;DHT22;50545;56.064;26.178;2022-07-23T02:19:10;17.80;99.90
64226;DHT22;50545;56.064;26.178;2022-07-23T02:21:37;17.80;99.90
64226;DHT22;50545;56.064;26.178;2022-07-23T02:24:05;17.80;99.90
64226;DHT22;50545;56.064;26.178;2022-07-23T02:26:32;17.80;99.90
64226;DHT22;50545;56.064;26.178;2022-07-23T02:29:02;17.80;99.90
64226;DHT22;50545;56.064;26.178;2022-07-23T02:31:31;17.90;99.90
64226;DHT22;50545;56.064;26.178;2022-07-23T02:33:58;17.90;99.90
64226;DHT22;50545;56.064;26.178;2022-07-23T02:36:26;17.90;99.90
64226;DHT22;50545;56.064;26.178;2022-07-23T02:38:53;17.90;99.90
64226;DHT22;50545;56.064;26.178;2022-07-23T02:41:21;18.00;99.90
64226;DHT22;50545;56.064;26.178;2022-07-23T02:43:48;17.90;99.90
64226;DHT22;50545;56.064;26.178;2022-07-23T02:46:15;17.80;99.90
64226;DHT22;50545;56.064;26.178;2022-07-23T02:48:43;17.80;99.90
64226;DHT22;50545;56.064;26.178;2022-07-23T02:51:10;17.80;99.90
64226;DHT22;50545;56.064;26.178;2022-07-23T02:53:41;17.80;99.90
64226;DHT22;50545;56.064;26.178;2022-07-23T02:56:08;17.80;99.90
64226;DHT22;50545;56.064;26.178;2022-07-23T02:58:36;17.70;99.90
64226;DHT22;50545;56.064;26.178;2022-07-23T03:01:03;17.70;99.90
64226;DHT22;50545;56.064;26.178;2022-07-23T03:03:31;17.70;99.90
64226;DHT22;50545;56.064;26.178;2022-07-23T03:05:58;17.70;99.90
64226;DHT22;50545;56.064;26.178;2022-07-23T03:08:25;17.70;99.90
64226;DHT22;50545;56.064;26.178;2022-07-23T03:10:53;17.70;99.90
64226;DHT22;50545;56.064;26.178;2022-07-23T03:13:20;17.70;99.90
64226;DHT22;50545;56.064;26.178;2022-07-23T03:15:47;17.70;99.90
64226;DHT22;50545;56.064;26.178;2022-07-23T03:18:15;17.80;99.90
64226;DHT22;50545;56.064;26.178;2022-07-23T03:20:42;17.80;99.90
64226;DHT22;50545;56.064;26.178;2022-07-23T03:23:10;17.90;99.90
64226;DHT22;50545;56.064;26.178;2022-07-23T03:25:37;18.00;99.90
64226;DHT22;50545;56.064;26.178;2022-07-23T03:28:05;18.10;99.90
64226;DHT22;50545;56.064;26.178;2022-07-23T03:30:32;18.20;99.90
64226;DHT22;50545;56.064;26.178;2022-07-23T03:32:59;18.30;99.90
64226;DHT22;50545;56.064;26.178;2022-07-23T03:35:27;18.40;99.90
64226;DHT22;50545;56.064;26.178;2022-07-23T03:37:54;18.50;99.90
64226;DHT22;50545;56.064;26.178;2022-07-23T03:40:21;18.60;99.90
64226;DHT22;50545;56.064;26.178;2022-07-23T03:42:49;18.70;99.90
64226;DHT22;50545;56.064;26.178;2022-07-23T03:45:16;18.90;99.90
64226;DHT22;50545;56.064;26.178;2022-07-23T03:47:43;19.00;99.90
64226;DHT22;50545;56.064;26.178;2022-07-23T03:50:11;19.10;99.90
64226;DHT22;50545;56.064;26.178;2022-07-23T03:52:39;19.20;99.90
64226;DHT22;50545;56.064;26.178;2022-07-23T03:55:07;19.20;99.90
64226;DHT22;50545;56.064;26.178;2022-07-23T03:57:34;19.30;99.90
64226;DHT22;50545;56.064;26.178;2022-07-23T04:00:04;19.40;99.90
64226;DHT22;50545;56.064;26.178;2022-07-23T04:02:32;19.50;99.90
64226;DHT22;50545;56.064;26.178;2022-07-23T04:04:59;19.70;99.90
64226;DHT22;50545;56.064;26.178;2022-07-23T04:07:27;19.70;99.90
64226;DHT22;50545;56.064;26.178;2022-07-23T04:09:55;19.80;99.90
64226;DHT22;50545;56.064;26.178;2022-07-23T04:12:23;19.80;99.90
64226;DHT22;50545;56.064;26.178;2022-07-23T04:14:50;19.90;99.90
64226;DHT22;50545;56.064;26.178;2022-07-23T04:17:18;19.90;99.90
64226;DHT22;50545;56.064;26.178;2022-07-23T04:19:45;19.90;99.90
64226;DHT22;50545;56.064;26.178;2022-07-23T04:22:12;20.00;99.90
64226;DHT22;50545;56.064;26.178;2022-07-23T04:24:40;20.10;99.90
64226;DHT22;50545;56.064;26.178;2022-07-23T04:27:07;20.20;99.90
64226;DHT22;50545;56.064;26.178;2022-07-23T04:29:34;20.30;99.90
64226;DHT22;50545;56.064;26.178;2022-07-23T04:32:02;20.30;99.90
64226;DHT22;50545;56.064;26.178;2022-07-23T04:34:29;20.40;99.90
64226;DHT22;50545;56.064;26.178;2022-07-23T04:36:56;20.50;99.90
64226;DHT22;50545;56.064;26.178;2022-07-23T04:39:24;20.60;99.90
64226;DHT22;50545;56.064;26.178;2022-07-23T04:41:51;20.70;99.90
64226;DHT22;50545;56.064;26.178;2022-07-23T04:44:18;20.70;99.90
64226;DHT22;50545;56.064;26.178;2022-07-23T04:46:46;20.80;99.90
64226;DHT22;50545;56.064;26.178;2022-07-23T04:49:14;20.80;99.90
64226;DHT22;50545;56.064;26.178;2022-07-23T04:51:44;20.90;99.90
64226;DHT22;50545;56.064;26.178;2022-07-23T04:54:11;21.00;99.90
64226;DHT22;50545;56.064;26.178;2022-07-23T04:56:39;21.00;99.90
64226;DHT22;50545;56.064;26.178;2022-07-23T04:59:06;21.00;99.90
64226;DHT22;50545;56.064;26.178;2022-07-23T05:01:33;21.00;99.90
64226;DHT22;50545;56.064;26.178;2022-07-23T05:04:01;21.10;99.90
64226;DHT22;50545;56.064;26.178;2022-07-23T05:06:28;21.20;99.90
64226;DHT22;50545;56.064;26.178;2022-07-23T05:08:55;21.30;99.90
64226;DHT22;50545;56.064;26.178;2022-07-23T05:11:23;21.30;99.90
64226;DHT22;50545;56.064;26.178;2022-07-23T05:13:53;21.50;99.90
64226;DHT22;50545;56.064;26.178;2022-07-23T05:16:20;21.60;99.90
64226;DHT22;50545;56.064;26.178;2022-07-23T05:18:48;21.70;99.90
64226;DHT22;50545;56.064;26.178;2022-07-23T05:21:15;21.70;99.90
64226;DHT22;50545;56.064;26.178;2022-07-23T05:23:42;21.70;99.90
64226;DHT22;50545;56.064;26.178;2022-07-23T05:26:09;21.80;99.90
64226;DHT22;50545;56.064;26.178;2022-07-23T05:28:37;21.80;99.90
64226;DHT22;50545;56.064;26.178;2022-07-23T05:31:04;21.90;99.90
64226;DHT22;50545;56.064;26.178;2022-07-23T05:33:31;22.00;99.90
64226;DHT22;50545;56.064;26.178;2022-07-23T05:36:03;22.00;97.70
64226;DHT22;50545;56.064;26.178;2022-07-23T05:38:32;22.00;99.90
64226;DHT22;50545;56.064;26.178;2022-07-23T05:40:59;22.00;99.90
64226;DHT22;50545;56.064;26.178;2022-07-23T05:43:27;22.10;99.90
64226;DHT22;50545;56.064;26.178;2022-07-23T05:45:55;22.00;94.90
64226;DHT22;50545;56.064;26.178;2022-07-23T05:48:22;21.90;98.60
64226;DHT22;50545;56.064;26.178;2022-07-23T05:50:50;21.90;98.10
64226;DHT22;50545;56.064;26.178;2022-07-23T05:53:17;22.00;99.90
64226;DHT22;50545;56.064;26.178;2022-07-23T05:55:45;22.10;99.90
64226;DHT22;50545;56.064;26.178;2022-07-23T05:58:12;22.10;99.70
64226;DHT22;50545;56.064;26.178;2022-07-23T06:00:39;22.20;99.90
64226;DHT22;50545;56.064;26.178;2022-07-23T06:03:07;22.30;99.90
64226;DHT22;50545;56.064;26.178;2022-07-23T06:05:34;22.40;98.10
64226;DHT22;50545;56.064;26.178;2022-07-23T06:08:01;22.20;98.20
64226;DHT22;50545;56.064;26.178;2022-07-23T06:10:29;22.20;99.90
64226;DHT22;50545;56.064;26.178;2022-07-23T06:12:56;22.20;99.90
64226;DHT22;50545;56.064;26.178;2022-07-23T06:15:28;22.20;99.90
64226;DHT22;50545;56.064;26.178;2022-07-23T06:17:56;22.20;99.40
64226;DHT22;50545;56.064;26.178;2022-07-23T06:20:23;22.40;99.90
64226;DHT22;50545;56.064;26.178;2022-07-23T06:22:51;22.50;99.90
64226;DHT22;50545;56.064;26.178;2022-07-23T06:25:18;22.50;97.50
64226;DHT22;50545;56.064;26.178;2022-07-23T06:27:47;22.50;95.90
64226;DHT22;50545;56.064;26.178;2022-07-23T06:30:15;22.50;99.40
64226;DHT22;50545;56.064;26.178;2022-07-23T06:32:48;22.70;99.90
64226;DHT22;50545;56.064;26.178;2022-07-23T06:35:16;22.90;95.90
64226;DHT22;50545;56.064;26.178;2022-07-23T06:37:44;23.10;96.10
64226;DHT22;50545;56.064;26.178;2022-07-23T06:40:14;23.00;94.20
64226;DHT22;50545;56.064;26.178;2022-07-23T06:42:41;23.10;98.70
64226;DHT22;50545;56.064;26.178;2022-07-23T06:45:09;23.10;96.30
64226;DHT22;50545;56.064;26.178;2022-07-23T06:47:36;23.10;92.50
64226;DHT22;50545;56.064;26.178;2022-07-23T06:50:04;23.00;96.10
64226;DHT22;50545;56.064;26.178;2022-07-23T06:52:31;22.90;98.50
64226;DHT22;50545;56.064;26.178;2022-07-23T06:54:59;22.90;99.90
64226;DHT22;50545;56.064;26.178;2022-07-23T06:57:26;22.70;98.80
64226;DHT22;50545;56.064;26.178;2022-07-23T06:59:54;22.50;99.90
64226;DHT22;50545;56.064;26.178;2022-07-23T07:02:22;22.30;99.90
64226;DHT22;50545;56.064;26.178;2022-07-23T07:04:50;22.00;99.90
64226;DHT22;50545;56.064;26.178;2022-07-23T07:07:17;21.80;99.90
64226;DHT22;50545;56.064;26.178;2022-07-23T07:09:44;21.60;99.90
64226;DHT22;50545;56.064;26.178;2022-07-23T07:12:14;21.40;99.90
64226;DHT22;50545;56.064;26.178;2022-07-23T07:14:41;21.20;99.90
64226;DHT22;50545;56.064;26.178;2022-07-23T07:17:09;21.10;99.90
64226;DHT22;50545;56.064;26.178;2022-07-23T07:19:37;21.00;99.90
64226;DHT22;50545;56.064;26.178;2022-07-23T07:22:05;20.80;99.90
64226;DHT22;50545;56.064;26.178;2022-07-23T07:24:32;20.80;99.90
64226;DHT22;50545;56.064;26.178;2022-07-23T07:27:04;20.60;99.90
64226;DHT22;50545;56.064;26.178;2022-07-23T07:29:32;20.60;99.90
64226;DHT22;50545;56.064;26.178;2022-07-23T07:31:59;20.50;99.90
64226;DHT22;50545;56.064;26.178;2022-07-23T07:34:26;20.50;99.90
64226;DHT22;50545;56.064;26.178;2022-07-23T07:36:54;20.50;99.90
64226;DHT22;50545;56.064;26.178;2022-07-23T07:39:21;20.50;99.90
64226;DHT22;50545;56.064;26.178;2022-07-23T07:41:48;20.50;99.90
64226;DHT22;50545;56.064;26.178;2022-07-23T07:44:16;20.50;99.90
64226;DHT22;50545;56.064;26.178;2022-07-23T07:46:43;20.40;99.90
64226;DHT22;50545;56.064;26.178;2022-07-23T07:49:11;20.40;99.90
64226;DHT22;50545;56.064;26.178;2022-07-23T07:51:42;20.40;99.90
64226;DHT22;50545;56.064;26.178;2022-07-23T07:54:12;20.40;99.90
64226;DHT22;50545;56.064;26.178;2022-07-23T07:56:39;20.40;99.90
64226;DHT22;50545;56.064;26.178;2022-07-23T07:59:07;20.50;99.90
64226;DHT22;50545;56.064;26.178;2022-07-23T08:01:36;20.50;99.90
64226;DHT22;50545;56.064;26.178;2022-07-23T08:04:04;20.60;99.90
64226;DHT22;50545;56.064;26.178;2022-07-23T08:06:32;20.70;99.90
64226;DHT22;50545;56.064;26.178;2022-07-23T08:08:59;20.90;99.90
64226;DHT22;50545;56.064;26.178;2022-07-23T08:11:27;21.10;99.90
64226;DHT22;50545;56.064;26.178;2022-07-23T08:13:54;21.30;99.90
64226;DHT22;50545;56.064;26.178;2022-07-23T08:16:21;21.40;99.90
64226;DHT22;50545;56.064;26.178;2022-07-23T08:18:49;21.60;99.90
64226;DHT22;50545;56.064;26.178;2022-07-23T08:21:16;21.90;99.90
64226;DHT22;50545;56.064;26.178;2022-07-23T08:23:43;22.00;99.90
64226;DHT22;50545;56.064;26.178;2022-07-23T08:26:10;22.20;99.90
64226;DHT22;50545;56.064;26.178;2022-07-23T08:28:38;22.40;99.90
64226;DHT22;50545;56.064;26.178;2022-07-23T08:31:05;22.40;99.90
64226;DHT22;50545;56.064;26.178;2022-07-23T08:33:33;22.50;99.90
64226;DHT22;50545;56.064;26.178;2022-07-23T08:36:02;22.50;99.90
64226;DHT22;50545;56.064;26.178;2022-07-23T08:38:31;22.60;99.90
64226;DHT22;50545;56.064;26.178;2022-07-23T08:40:59;22.80;99.90
64226;DHT22;50545;56.064;26.178;2022-07-23T08:43:28;23.00;99.90
64226;DHT22;50545;56.064;26.178;2022-07-23T08:45:58;23.10;99.90
64226;DHT22;50545;56.064;26.178;2022-07-23T08:48:32;23.20;99.90
64226;DHT22;50545;56.064;26.178;2022-07-23T08:51:02;23.30;99.90
64226;DHT22;50545;56.064;26.178;2022-07-23T08:53:30;23.50;99.90
64226;DHT22;50545;56.064;26.178;2022-07-23T08:56:00;23.70;99.90
64226;DHT22;50545;56.064;26.178;2022-07-23T08:58:31;24.00;99.90
64226;DHT22;50545;56.064;26.178;2022-07-23T09:00:59;24.10;94.20
64226;DHT22;50545;56.064;26.178;2022-07-23T09:03:29;23.90;97.00
64226;DHT22;50545;56.064;26.178;2022-07-23T09:05:58;23.90;99.90
64226;DHT22;50545;56.064;26.178;2022-07-23T09:11:02;24.10;96.30
64226;DHT22;50545;56.064;26.178;2022-07-23T09:16:23;24.30;95.30
64226;DHT22;50545;56.064;26.178;2022-07-23T09:19:00;24.50;99.90
64226;DHT22;50545;56.064;26.178;2022-07-23T09:23:59;24.50;94.60
64226;DHT22;50545;56.064;26.178;2022-07-23T09:26:36;24.30;98.50
64226;DHT22;50545;56.064;26.178;2022-07-23T09:29:09;24.40;99.90
64226;DHT22;50545;56.064;26.178;2022-07-23T09:31:44;24.70;99.90
64226;DHT22;50545;56.064;26.178;2022-07-23T09:34:13;24.80;92.50
64226;DHT22;50545;56.064;26.178;2022-07-23T09:36:41;24.80;90.20
64226;DHT22;50545;56.064;26.178;2022-07-23T09:39:09;24.80;99.60
64226;DHT22;50545;56.064;26.178;2022-07-23T09:41:44;25.00;95.10
64226;DHT22;50545;56.064;26.178;2022-07-23T09:44:16;25.00;91.10
64226;DHT22;50545;56.064;26.178;2022-07-23T09:46:51;25.20;97.30
64226;DHT22;50545;56.064;26.178;2022-07-23T09:49:24;25.40;81.10
64226;DHT22;50545;56.064;26.178;2022-07-23T09:51:59;25.40;82.40
64226;DHT22;50545;56.064;26.178;2022-07-23T09:54:46;25.50;93.90
64226;DHT22;50545;56.064;26.178;2022-07-23T09:57:20;25.90;92.50
64226;DHT22;50545;56.064;26.178;2022-07-23T09:59:48;26.20;90.90
64226;DHT22;50545;56.064;26.178;2022-07-23T10:02:15;26.60;75.60
64226;DHT22;50545;56.064;26.178;2022-07-23T10:04:44;26.70;73.60
64226;DHT22;50545;56.064;26.178;2022-07-23T10:07:14;26.80;77.70
64226;DHT22;50545;56.064;26.178;2022-07-23T10:09:45;26.70;72.70
64226;DHT22;50545;56.064;26.178;2022-07-23T10:12:14;26.60;71.60
64226;DHT22;50545;56.064;26.178;2022-07-23T10:15:00;26.50;74.60
64226;DHT22;50545;56.064;26.178;2022-07-23T10:17:29;26.20;73.60
64226;DHT22;50545;56.064;26.178;2022-07-23T10:19:56;26.20;74.60
64226;DHT22;50545;56.064;26.178;2022-07-23T10:22:30;26.30;75.90
64226;DHT22;50545;56.064;26.178;2022-07-23T10:27:42;26.00;75.60
64226;DHT22;50545;56.064;26.178;2022-07-23T10:35:54;26.30;75.00
64226;DHT22;50545;56.064;26.178;2022-07-23T10:38:31;26.30;72.10
64226;DHT22;50545;56.064;26.178;2022-07-23T10:41:03;26.10;72.60
64226;DHT22;50545;56.064;26.178;2022-07-23T10:43:31;26.00;74.30
64226;DHT22;50545;56.064;26.178;2022-07-23T10:46:24;26.10;76.10
64226;DHT22;50545;56.064;26.178;2022-07-23T10:54:55;26.20;70.00
64226;DHT22;50545;56.064;26.178;2022-07-23T10:57:26;26.10;71.10
64226;DHT22;50545;56.064;26.178;2022-07-23T11:02:30;26.00;74.00
64226;DHT22;50545;56.064;26.178;2022-07-23T11:05:05;26.10;71.40
64226;DHT22;50545;56.064;26.178;2022-07-23T11:07:34;26.20;71.00
64226;DHT22;50545;56.064;26.178;2022-07-23T11:10:01;26.50;71.40
64226;DHT22;50545;56.064;26.178;2022-07-23T11:15:10;26.90;65.60
64226;DHT22;50545;56.064;26.178;2022-07-23T11:20:22;27.00;67.20
64226;DHT22;50545;56.064;26.178;2022-07-23T11:27:50;26.90;64.10
64226;DHT22;50545;56.064;26.178;2022-07-23T11:35:42;26.40;71.40
64226;DHT22;50545;56.064;26.178;2022-07-23T11:38:17;26.60;66.60
64226;DHT22;50545;56.064;26.178;2022-07-23T11:40:50;26.80;72.20
64226;DHT22;50545;56.064;26.178;2022-07-23T11:43:18;27.30;70.80
64226;DHT22;50545;56.064;26.178;2022-07-23T11:45:48;27.20;62.30
64226;DHT22;50545;56.064;26.178;2022-07-23T11:48:25;27.10;64.70
64226;DHT22;50545;56.064;26.178;2022-07-23T11:50:54;26.90;63.60
64226;DHT22;50545;56.064;26.178;2022-07-23T11:53:27;26.80;64.30
64226;DHT22;50545;56.064;26.178;2022-07-23T11:56:07;26.80;65.00
64226;DHT22;50545;56.064;26.178;2022-07-23T11:58:35;26.90;64.40
64226;DHT22;50545;56.064;26.178;2022-07-23T12:01:03;26.90;66.00
64226;DHT22;50545;56.064;26.178;2022-07-23T12:03:30;27.10;65.60
64226;DHT22;50545;56.064;26.178;2022-07-23T12:05:59;27.50;65.10
64226;DHT22;50545;56.064;26.178;2022-07-23T12:08:27;27.90;62.20
64226;DHT22;50545;56.064;26.178;2022-07-23T12:10:54;28.00;62.30
64226;DHT22;50545;56.064;26.178;2022-07-23T12:13:22;28.00;61.00
64226;DHT22;50545;56.064;26.178;2022-07-23T12:15:52;27.80;60.60
64226;DHT22;50545;56.064;26.178;2022-07-23T12:18:20;27.80;66.00
64226;DHT22;50545;56.064;26.178;2022-07-23T12:20:51;27.80;64.90
64226;DHT22;50545;56.064;26.178;2022-07-23T12:23:19;27.90;62.60
64226;DHT22;50545;56.064;26.178;2022-07-23T12:25:49;28.30;70.20
64226;DHT22;50545;56.064;26.178;2022-07-23T12:28:19;28.70;63.10
64226;DHT22;50545;56.064;26.178;2022-07-23T12:30:48;29.30;60.90
64226;DHT22;50545;56.064;26.178;2022-07-23T12:33:37;29.20;57.10
64226;DHT22;50545;56.064;26.178;2022-07-23T12:36:08;29.00;61.20
64226;DHT22;50545;56.064;26.178;2022-07-23T12:38:49;28.80;60.50
64226;DHT22;50545;56.064;26.178;2022-07-23T12:41:16;28.40;57.50
64226;DHT22;50545;56.064;26.178;2022-07-23T12:43:46;27.70;59.80
64226;DHT22;50545;56.064;26.178;2022-07-23T12:46:15;27.30;63.40
64226;DHT22;50545;56.064;26.178;2022-07-23T12:53:53;27.40;61.10
64226;DHT22;50545;56.064;26.178;2022-07-23T12:56:32;27.50;62.60
64226;DHT22;50545;56.064;26.178;2022-07-23T12:59:14;27.70;60.20
64226;DHT22;50545;56.064;26.178;2022-07-23T13:02:03;28.00;61.70
64226;DHT22;50545;56.064;26.178;2022-07-23T13:04:30;28.00;62.00
64226;DHT22;50545;56.064;26.178;2022-07-23T13:07:01;27.90;63.40
64226;DHT22;50545;56.064;26.178;2022-07-23T13:09:32;28.10;62.20
64226;DHT22;50545;56.064;26.178;2022-07-23T13:12:07;28.20;62.00
64226;DHT22;50545;56.064;26.178;2022-07-23T13:14:37;28.20;59.80
64226;DHT22;50545;56.064;26.178;2022-07-23T13:17:05;27.80;60.30
64226;DHT22;50545;56.064;26.178;2022-07-23T13:19:33;27.20;61.10
64226;DHT22;50545;56.064;26.178;2022-07-23T13:22:01;26.80;63.20
64226;DHT22;50545;56.064;26.178;2022-07-23T13:24:35;26.60;64.50
64226;DHT22;50545;56.064;26.178;2022-07-23T13:27:05;26.30;65.20
64226;DHT22;50545;56.064;26.178;2022-07-23T13:29:54;26.10;66.50
64226;DHT22;50545;56.064;26.178;2022-07-23T13:32:22;26.00;67.50
64226;DHT22;50545;56.064;26.178;2022-07-23T13:34:49;25.90;67.80
64226;DHT22;50545;56.064;26.178;2022-07-23T13:37:17;25.70;70.20
64226;DHT22;50545;56.064;26.178;2022-07-23T13:39:44;25.70;71.00
64226;DHT22;50545;56.064;26.178;2022-07-23T13:42:13;25.80;72.50
64226;DHT22;50545;56.064;26.178;2022-07-23T13:44:40;25.80;71.90
64226;DHT22;50545;56.064;26.178;2022-07-23T13:47:08;25.90;72.20
64226;DHT22;50545;56.064;26.178;2022-07-23T13:49:36;25.90;72.20
64226;DHT22;50545;56.064;26.178;2022-07-23T13:52:03;26.00;72.90
64226;DHT22;50545;56.064;26.178;2022-07-23T13:54:51;26.00;69.60
64226;DHT22;50545;56.064;26.178;2022-07-23T13:57:19;26.30;72.50
64226;DHT22;50545;56.064;26.178;2022-07-23T13:59:47;26.90;72.40
64226;DHT22;50545;56.064;26.178;2022-07-23T14:02:17;27.70;68.90
64226;DHT22;50545;56.064;26.178;2022-07-23T14:04:51;28.10;62.70
64226;DHT22;50545;56.064;26.178;2022-07-23T14:07:18;28.10;61.80
64226;DHT22;50545;56.064;26.178;2022-07-23T14:09:46;28.10;64.00
64226;DHT22;50545;56.064;26.178;2022-07-23T14:12:14;27.90;62.50
64226;DHT22;50545;56.064;26.178;2022-07-23T14:14:43;27.90;62.60
64226;DHT22;50545;56.064;26.178;2022-07-23T14:17:10;28.00;64.20
64226;DHT22;50545;56.064;26.178;2022-07-23T14:19:38;28.10;65.10
64226;DHT22;50545;56.064;26.178;2022-07-23T14:22:05;28.30;60.90
64226;DHT22;50545;56.064;26.178;2022-07-23T14:24:33;28.30;60.90
64226;DHT22;50545;56.064;26.178;2022-07-23T14:27:03;27.90;61.70
64226;DHT22;50545;56.064;26.178;2022-07-23T14:29:31;27.80;62.70
64226;DHT22;50545;56.064;26.178;2022-07-23T14:31:59;27.80;64.20
64226;DHT22;50545;56.064;26.178;2022-07-23T14:34:28;28.10;61.70
64226;DHT22;50545;56.064;26.178;2022-07-23T14:36:56;28.50;62.20
64226;DHT22;50545;56.064;26.178;2022-07-23T14:39:24;28.90;62.50
64226;DHT22;50545;56.064;26.178;2022-07-23T14:41:51;29.10;58.50
64226;DHT22;50545;56.064;26.178;2022-07-23T14:44:19;28.90;56.90
64226;DHT22;50545;56.064;26.178;2022-07-23T14:46:46;28.90;60.00
64226;DHT22;50545;56.064;26.178;2022-07-23T14:49:14;29.10;58.60
64226;DHT22;50545;56.064;26.178;2022-07-23T14:51:41;29.40;59.90
64226;DHT22;50545;56.064;26.178;2022-07-23T14:54:10;29.90;57.10
64226;DHT22;50545;56.064;26.178;2022-07-23T14:56:38;30.30;58.20
64226;DHT22;50545;56.064;26.178;2022-07-23T14:59:06;30.60;54.10
64226;DHT22;50545;56.064;26.178;2022-07-23T15:01:34;30.60;52.40
64226;DHT22;50545;56.064;26.178;2022-07-23T15:04:01;30.10;54.90
64226;DHT22;50545;56.064;26.178;2022-07-23T15:06:49;29.80;57.00
64226;DHT22;50545;56.064;26.178;2022-07-23T15:09:16;29.30;56.50
64226;DHT22;50545;56.064;26.178;2022-07-23T15:11:43;29.00;57.50
64226;DHT22;50545;56.064;26.178;2022-07-23T15:14:10;28.90;58.50
64226;DHT22;50545;56.064;26.178;2022-07-23T15:16:43;28.90;58.90
64226;DHT22;50545;56.064;26.178;2022-07-23T15:19:13;28.90;57.30
64226;DHT22;50545;56.064;26.178;2022-07-23T15:21:40;28.60;55.90
64226;DHT22;50545;56.064;26.178;2022-07-23T15:24:14;28.10;57.90
64226;DHT22;50545;56.064;26.178;2022-07-23T15:26:42;28.00;60.70
64226;DHT22;50545;56.064;26.178;2022-07-23T15:29:09;28.30;61.70
64226;DHT22;50545;56.064;26.178;2022-07-23T15:31:36;28.40;58.60
64226;DHT22;50545;56.064;26.178;2022-07-23T15:34:04;28.60;60.50
64226;DHT22;50545;56.064;26.178;2022-07-23T15:36:33;29.10;60.50
64226;DHT22;50545;56.064;26.178;2022-07-23T15:39:02;29.80;61.40
64226;DHT22;50545;56.064;26.178;2022-07-23T15:41:30;30.00;55.80
64226;DHT22;50545;56.064;26.178;2022-07-23T15:43:57;29.60;55.50
64226;DHT22;50545;56.064;26.178;2022-07-23T15:46:25;29.10;57.60
64226;DHT22;50545;56.064;26.178;2022-07-23T15:48:53;28.80;58.10
64226;DHT22;50545;56.064;26.178;2022-07-23T15:51:21;28.40;59.10
64226;DHT22;50545;56.064;26.178;2022-07-23T15:53:49;27.90;59.00
64226;DHT22;50545;56.064;26.178;2022-07-23T15:56:17;27.40;60.90
64226;DHT22;50545;56.064;26.178;2022-07-23T15:58:44;27.10;64.10
64226;DHT22;50545;56.064;26.178;2022-07-23T16:01:12;27.00;63.50
64226;DHT22;50545;56.064;26.178;2022-07-23T16:03:40;26.90;64.00
64226;DHT22;50545;56.064;26.178;2022-07-23T16:06:10;27.00;66.90
64226;DHT22;50545;56.064;26.178;2022-07-23T16:08:44;27.20;68.20
64226;DHT22;50545;56.064;26.178;2022-07-23T16:11:12;27.80;67.00